sensor_id;sensor_type;location;lat;lon;timestamp;temperature;humidity
65044;DHT22;51617;48.158;16.464;2022-09-27T00:01:55;15.50;95.10
65044;DHT22;51617;48.158;16.464;2022-09-27T00:04:20;15.60;95.40
65044;DHT22;51617;48.158;16.464;2022-09-27T00:06:46;15.50;95.40
65044;DHT22;51617;48.158;16.464;2022-09-27T00:09:11;15.50;95.40
65044;DHT22;51617;48.158;16.464;2022-09-27T00:11:38;15.40;95.50
65044;DHT22;51617;48.158;16.464;2022-09-27T00:14:04;15.40;95.60
65044;DHT22;51617;48.158;16.464;2022-09-27T00:16:31;15.30;95.50
65044;DHT22;51617;48.158;16.464;2022-09-27T00:18:57;15.30;95.80
65044;DHT22;51617;48.158;16.464;2022-09-27T00:21:24;15.20;95.60
65044;DHT22;51617;48.158;16.464;2022-09-27T00:23:49;15.30;95.90
65044;DHT22;51617;48.158;16.464;2022-09-27T00:26:15;15.20;95.60
65044;DHT22;51617;48.158;16.464;2022-09-27T00:28:41;15.20;95.60
65044;DHT22;51617;48.158;16.464;2022-09-27T00:31:19;15.20;95.90
65044;DHT22;51617;48.158;16.464;2022-09-27T00:33:49;15.10;96.00
65044;DHT22;51617;48.158;16.464;2022-09-27T00:36:16;15.20;96.00
65044;DHT22;51617;48.158;16.464;2022-09-27T00:38:42;15.10;96.00
65044;DHT22;51617;48.158;16.464;2022-09-27T00:41:21;15.10;96.10
65044;DHT22;51617;48.158;16.464;2022-09-27T00:43:48;15.00;96.10
65044;DHT22;51617;48.158;16.464;2022-09-27T00:46:17;15.00;96.20
65044;DHT22;51617;48.158;16.464;2022-09-27T00:48:43;15.00;96.00
65044;DHT22;51617;48.158;16.464;2022-09-27T00:51:09;15.00;96.20
65044;DHT22;51617;48.158;16.464;2022-09-27T00:53:40;15.00;95.80
65044;DHT22;51617;48.158;16.464;2022-09-27T00:56:08;15.00;96.00
65044;DHT22;51617;48.158;16.464;2022-09-27T00:58:45;15.00;95.80
65044;DHT22;51617;48.158;16.464;2022-09-27T01:01:12;15.00;95.90
65044;DHT22;51617;48.158;16.464;2022-09-27T01:06:33;15.00;95.60
65044;DHT22;51617;48.158;16.464;2022-09-27T01:08:59;15.00;95.60
65044;DHT22;51617;48.158;16.464;2022-09-27T01:16:34;15.00;95.60
65044;DHT22;51617;48.158;16.464;2022-09-27T01:26:47;14.50;96.30
65044;DHT22;51617;48.158;16.464;2022-09-27T01:41:42;14.40;96.90
65044;DHT22;51617;48.158;16.464;2022-09-27T01:46:55;14.30;96.70
65044;DHT22;51617;48.158;16.464;2022-09-27T01:49:29;14.30;96.60
65044;DHT22;51617;48.158;16.464;2022-09-27T01:51:58;14.30;96.60
65044;DHT22;51617;48.158;16.464;2022-09-27T01:54:27;14.30;97.00
65044;DHT22;51617;48.158;16.464;2022-09-27T01:56:55;14.10;96.80
65044;DHT22;51617;48.158;16.464;2022-09-27T01:59:25;14.10;97.20
65044;DHT22;51617;48.158;16.464;2022-09-27T02:01:54;14.00;96.90
65044;DHT22;51617;48.158;16.464;2022-09-27T02:04:25;14.00;97.10
65044;DHT22;51617;48.158;16.464;2022-09-27T02:06:54;13.90;97.10
65044;DHT22;51617;48.158;16.464;2022-09-27T02:09:30;13.90;97.20
65044;DHT22;51617;48.158;16.464;2022-09-27T02:11:59;14.00;97.40
65044;DHT22;51617;48.158;16.464;2022-09-27T02:14:30;14.00;97.50
65044;DHT22;51617;48.158;16.464;2022-09-27T02:19:37;14.10;97.30
65044;DHT22;51617;48.158;16.464;2022-09-27T02:24:52;14.10;97.10
65044;DHT22;51617;48.158;16.464;2022-09-27T02:30:09;14.00;97.20
65044;DHT22;51617;48.158;16.464;2022-09-27T02:32:33;13.80;97.00
65044;DHT22;51617;48.158;16.464;2022-09-27T02:35:01;13.50;97.00
65044;DHT22;51617;48.158;16.464;2022-09-27T02:37:28;13.50;97.60
65044;DHT22;51617;48.158;16.464;2022-09-27T02:39:54;13.50;97.60
65044;DHT22;51617;48.158;16.464;2022-09-27T02:42:19;13.60;98.00
65044;DHT22;51617;48.158;16.464;2022-09-27T02:44:45;13.60;97.80
65044;DHT22;51617;48.158;16.464;2022-09-27T02:52:53;13.50;98.00
65044;DHT22;51617;48.158;16.464;2022-09-27T03:03:09;13.50;98.60
65044;DHT22;51617;48.158;16.464;2022-09-27T03:06:12;13.60;98.30
65044;DHT22;51617;48.158;16.464;2022-09-27T03:08:29;13.80;98.40
65044;DHT22;51617;48.158;16.464;2022-09-27T03:10:55;13.80;97.90
65044;DHT22;51617;48.158;16.464;2022-09-27T03:13:20;13.80;98.10
65044;DHT22;51617;48.158;16.464;2022-09-27T03:15:46;13.70;98.00
65044;DHT22;51617;48.158;16.464;2022-09-27T03:18:11;13.60;98.20
65044;DHT22;51617;48.158;16.464;2022-09-27T03:20:37;13.50;98.40
65044;DHT22;51617;48.158;16.464;2022-09-27T03:23:02;13.60;98.70
65044;DHT22;51617;48.158;16.464;2022-09-27T03:25:27;13.50;98.60
65044;DHT22;51617;48.158;16.464;2022-09-27T03:27:53;13.60;98.90
65044;DHT22;51617;48.158;16.464;2022-09-27T03:30:18;13.70;98.90
65044;DHT22;51617;48.158;16.464;2022-09-27T03:32:44;13.80;98.90
65044;DHT22;51617;48.158;16.464;2022-09-27T03:35:10;13.90;98.80
65044;DHT22;51617;48.158;16.464;2022-09-27T03:37:36;13.90;98.60
65044;DHT22;51617;48.158;16.464;2022-09-27T03:40:03;14.00;98.50
65044;DHT22;51617;48.158;16.464;2022-09-27T03:42:28;14.10;98.30
65044;DHT22;51617;48.158;16.464;2022-09-27T03:44:54;14.20;98.30
65044;DHT22;51617;48.158;16.464;2022-09-27T03:47:19;14.10;97.90
65044;DHT22;51617;48.158;16.464;2022-09-27T03:49:45;14.10;98.20
65044;DHT22;51617;48.158;16.464;2022-09-27T03:52:10;14.10;98.30
65044;DHT22;51617;48.158;16.464;2022-09-27T03:54:36;14.20;98.30
65044;DHT22;51617;48.158;16.464;2022-09-27T03:57:01;14.30;98.20
65044;DHT22;51617;48.158;16.464;2022-09-27T03:59:27;14.40;98.00
65044;DHT22;51617;48.158;16.464;2022-09-27T04:01:53;14.50;97.90
65044;DHT22;51617;48.158;16.464;2022-09-27T04:04:18;14.50;97.50
65044;DHT22;51617;48.158;16.464;2022-09-27T04:06:44;14.50;97.70
65044;DHT22;51617;48.158;16.464;2022-09-27T04:09:09;14.50;97.60
65044;DHT22;51617;48.158;16.464;2022-09-27T04:11:35;14.40;97.60
65044;DHT22;51617;48.158;16.464;2022-09-27T04:14:00;14.40;97.40
65044;DHT22;51617;48.158;16.464;2022-09-27T04:16:26;14.50;97.70
65044;DHT22;51617;48.158;16.464;2022-09-27T04:18:51;14.50;97.60
65044;DHT22;51617;48.158;16.464;2022-09-27T04:21:17;14.50;97.30
65044;DHT22;51617;48.158;16.464;2022-09-27T04:23:44;14.50;97.30
65044;DHT22;51617;48.158;16.464;2022-09-27T04:26:11;14.60;97.40
65044;DHT22;51617;48.158;16.464;2022-09-27T04:28:38;14.60;97.30
65044;DHT22;51617;48.158;16.464;2022-09-27T04:31:03;14.60;97.30
65044;DHT22;51617;48.158;16.464;2022-09-27T04:33:29;14.60;97.30
65044;DHT22;51617;48.158;16.464;2022-09-27T04:35:54;14.60;97.30
65044;DHT22;51617;48.158;16.464;2022-09-27T04:38:38;14.60;97.50
65044;DHT22;51617;48.158;16.464;2022-09-27T04:41:04;14.50;97.60
65044;DHT22;51617;48.158;16.464;2022-09-27T04:43:31;14.50;97.50
65044;DHT22;51617;48.158;16.464;2022-09-27T04:45:56;14.60;97.50
65044;DHT22;51617;48.158;16.464;2022-09-27T04:48:22;14.60;97.50
65044;DHT22;51617;48.158;16.464;2022-09-27T04:50:54;14.70;97.80
65044;DHT22;51617;48.158;16.464;2022-09-27T04:53:19;14.70;97.90
65044;DHT22;51617;48.158;16.464;2022-09-27T04:55:46;14.80;97.80
65044;DHT22;51617;48.158;16.464;2022-09-27T04:58:12;14.80;97.60
65044;DHT22;51617;48.158;16.464;2022-09-27T05:00:38;14.80;97.50
65044;DHT22;51617;48.158;16.464;2022-09-27T05:03:04;14.80;97.80
65044;DHT22;51617;48.158;16.464;2022-09-27T05:05:30;14.80;97.50
65044;DHT22;51617;48.158;16.464;2022-09-27T05:07:55;14.80;97.80
65044;DHT22;51617;48.158;16.464;2022-09-27T05:10:21;14.80;97.80
65044;DHT22;51617;48.158;16.464;2022-09-27T05:12:46;14.80;97.50
65044;DHT22;51617;48.158;16.464;2022-09-27T05:15:12;14.90;97.80
65044;DHT22;51617;48.158;16.464;2022-09-27T05:17:37;14.80;97.70
65044;DHT22;51617;48.158;16.464;2022-09-27T05:20:03;14.80;97.60
65044;DHT22;51617;48.158;16.464;2022-09-27T05:22:29;14.90;97.70
65044;DHT22;51617;48.158;16.464;2022-09-27T05:24:54;14.80;97.60
65044;DHT22;51617;48.158;16.464;2022-09-27T05:27:20;14.80;98.00
65044;DHT22;51617;48.158;16.464;2022-09-27T05:29:46;14.80;98.00
65044;DHT22;51617;48.158;16.464;2022-09-27T05:32:11;14.90;97.90
65044;DHT22;51617;48.158;16.464;2022-09-27T05:34:37;14.90;97.90
65044;DHT22;51617;48.158;16.464;2022-09-27T05:37:03;14.90;97.80
65044;DHT22;51617;48.158;16.464;2022-09-27T05:39:28;14.80;97.40
65044;DHT22;51617;48.158;16.464;2022-09-27T05:41:54;14.90;97.60
65044;DHT22;51617;48.158;16.464;2022-09-27T05:44:20;14.80;97.20
65044;DHT22;51617;48.158;16.464;2022-09-27T05:46:46;14.90;97.50
65044;DHT22;51617;48.158;16.464;2022-09-27T05:49:11;14.90;97.60
65044;DHT22;51617;48.158;16.464;2022-09-27T05:51:37;14.90;97.40
65044;DHT22;51617;48.158;16.464;2022-09-27T05:54:02;15.00;97.70
65044;DHT22;51617;48.158;16.464;2022-09-27T05:56:28;15.00;97.70
65044;DHT22;51617;48.158;16.464;2022-09-27T05:58:53;15.00;97.50
65044;DHT22;51617;48.158;16.464;2022-09-27T06:01:19;15.00;97.50
65044;DHT22;51617;48.158;16.464;2022-09-27T06:03:45;15.00;97.50
65044;DHT22;51617;48.158;16.464;2022-09-27T06:06:11;15.00;97.60
65044;DHT22;51617;48.158;16.464;2022-09-27T06:08:38;15.00;97.50
65044;DHT22;51617;48.158;16.464;2022-09-27T06:11:05;14.90;97.60
65044;DHT22;51617;48.158;16.464;2022-09-27T06:13:31;15.10;97.80
65044;DHT22;51617;48.158;16.464;2022-09-27T06:16:04;15.10;97.70
65044;DHT22;51617;48.158;16.464;2022-09-27T06:18:30;15.10;97.40
65044;DHT22;51617;48.158;16.464;2022-09-27T06:20:57;15.10;97.40
65044;DHT22;51617;48.158;16.464;2022-09-27T06:23:23;15.10;97.80
65044;DHT22;51617;48.158;16.464;2022-09-27T06:25:49;15.10;97.60
65044;DHT22;51617;48.158;16.464;2022-09-27T06:28:15;15.10;98.20
65044;DHT22;51617;48.158;16.464;2022-09-27T06:30:42;15.10;97.80
65044;DHT22;51617;48.158;16.464;2022-09-27T06:33:08;15.20;98.10
65044;DHT22;51617;48.158;16.464;2022-09-27T06:35:34;15.20;98.20
65044;DHT22;51617;48.158;16.464;2022-09-27T06:38:04;15.20;98.00
65044;DHT22;51617;48.158;16.464;2022-09-27T06:40:30;15.30;98.40
65044;DHT22;51617;48.158;16.464;2022-09-27T06:43:05;15.30;98.30
65044;DHT22;51617;48.158;16.464;2022-09-27T06:45:32;15.50;97.80
65044;DHT22;51617;48.158;16.464;2022-09-27T06:47:59;15.40;97.80
65044;DHT22;51617;48.158;16.464;2022-09-27T06:50:29;15.60;97.80
65044;DHT22;51617;48.158;16.464;2022-09-27T06:52:56;15.60;97.90
65044;DHT22;51617;48.158;16.464;2022-09-27T06:55:22;15.70;98.00
65044;DHT22;51617;48.158;16.464;2022-09-27T06:57:47;15.70;97.60
65044;DHT22;51617;48.158;16.464;2022-09-27T07:00:32;15.70;97.90
65044;DHT22;51617;48.158;16.464;2022-09-27T07:02:57;15.80;97.60
65044;DHT22;51617;48.158;16.464;2022-09-27T07:05:26;15.90;97.80
65044;DHT22;51617;48.158;16.464;2022-09-27T07:07:54;15.90;97.70
65044;DHT22;51617;48.158;16.464;2022-09-27T07:10:22;15.90;97.80
65044;DHT22;51617;48.158;16.464;2022-09-27T07:12:48;16.10;97.70
65044;DHT22;51617;48.158;16.464;2022-09-27T07:15:13;16.10;97.70
65044;DHT22;51617;48.158;16.464;2022-09-27T07:17:39;16.00;97.50
65044;DHT22;51617;48.158;16.464;2022-09-27T07:20:05;16.10;97.70
65044;DHT22;51617;48.158;16.464;2022-09-27T07:22:31;16.10;97.60
65044;DHT22;51617;48.158;16.464;2022-09-27T07:24:56;16.10;97.40
65044;DHT22;51617;48.158;16.464;2022-09-27T07:27:22;16.10;97.20
65044;DHT22;51617;48.158;16.464;2022-09-27T07:29:49;16.20;97.20
65044;DHT22;51617;48.158;16.464;2022-09-27T07:32:15;16.10;97.20
65044;DHT22;51617;48.158;16.464;2022-09-27T07:34:40;16.00;97.40
65044;DHT22;51617;48.158;16.464;2022-09-27T07:37:06;16.00;97.60
65044;DHT22;51617;48.158;16.464;2022-09-27T07:39:31;16.00;97.70
65044;DHT22;51617;48.158;16.464;2022-09-27T07:41:57;16.00;97.80
65044;DHT22;51617;48.158;16.464;2022-09-27T07:44:22;16.00;97.70
65044;DHT22;51617;48.158;16.464;2022-09-27T07:46:48;15.90;97.50
65044;DHT22;51617;48.158;16.464;2022-09-27T07:49:13;16.00;97.80
65044;DHT22;51617;48.158;16.464;2022-09-27T07:51:39;15.90;98.00
65044;DHT22;51617;48.158;16.464;2022-09-27T07:54:04;15.80;98.10
65044;DHT22;51617;48.158;16.464;2022-09-27T07:56:30;15.80;98.40
65044;DHT22;51617;48.158;16.464;2022-09-27T07:58:56;15.70;98.50
65044;DHT22;51617;48.158;16.464;2022-09-27T08:01:21;15.70;98.40
65044;DHT22;51617;48.158;16.464;2022-09-27T08:03:47;15.50;98.60
65044;DHT22;51617;48.158;16.464;2022-09-27T08:06:12;15.40;99.00
65044;DHT22;51617;48.158;16.464;2022-09-27T08:08:38;15.40;98.70
65044;DHT22;51617;48.158;16.464;2022-09-27T08:11:10;15.40;98.80
65044;DHT22;51617;48.158;16.464;2022-09-27T08:13:37;15.50;99.10
65044;DHT22;51617;48.158;16.464;2022-09-27T08:16:04;15.50;98.80
65044;DHT22;51617;48.158;16.464;2022-09-27T08:18:30;15.40;99.40
65044;DHT22;51617;48.158;16.464;2022-09-27T08:20:56;15.30;99.20
65044;DHT22;51617;48.158;16.464;2022-09-27T08:23:24;15.40;99.50
65044;DHT22;51617;48.158;16.464;2022-09-27T08:25:52;15.30;99.40
65044;DHT22;51617;48.158;16.464;2022-09-27T08:28:18;15.40;99.40
65044;DHT22;51617;48.158;16.464;2022-09-27T08:30:49;15.30;99.40
65044;DHT22;51617;48.158;16.464;2022-09-27T08:33:15;15.40;99.70
65044;DHT22;51617;48.158;16.464;2022-09-27T08:35:41;15.40;99.40
65044;DHT22;51617;48.158;16.464;2022-09-27T08:38:07;15.40;99.60
65044;DHT22;51617;48.158;16.464;2022-09-27T08:40:41;15.30;99.90
65044;DHT22;51617;48.158;16.464;2022-09-27T08:43:22;15.30;99.90
65044;DHT22;51617;48.158;16.464;2022-09-27T08:45:54;15.10;99.50
65044;DHT22;51617;48.158;16.464;2022-09-27T08:48:24;14.80;99.80
65044;DHT22;51617;48.158;16.464;2022-09-27T08:50:50;14.50;99.90
65044;DHT22;51617;48.158;16.464;2022-09-27T08:53:18;14.30;99.90
65044;DHT22;51617;48.158;16.464;2022-09-27T08:55:46;14.20;99.90
65044;DHT22;51617;48.158;16.464;2022-09-27T08:58:22;14.10;99.30
65044;DHT22;51617;48.158;16.464;2022-09-27T09:00:51;14.00;99.40
65044;DHT22;51617;48.158;16.464;2022-09-27T09:03:20;14.00;99.50
65044;DHT22;51617;48.158;16.464;2022-09-27T09:06:01;13.90;99.40
65044;DHT22;51617;48.158;16.464;2022-09-27T09:08:32;13.90;99.50
65044;DHT22;51617;48.158;16.464;2022-09-27T09:21:44;14.10;99.90
65044;DHT22;51617;48.158;16.464;2022-09-27T09:24:17;12.90;99.50
65044;DHT22;51617;48.158;16.464;2022-09-27T09:26:47;14.50;99.50
65044;DHT22;51617;48.158;16.464;2022-09-27T09:34:28;14.50;98.50
65044;DHT22;51617;48.158;16.464;2022-09-27T09:37:01;14.60;98.80
65044;DHT22;51617;48.158;16.464;2022-09-27T09:42:12;14.60;98.30
65044;DHT22;51617;48.158;16.464;2022-09-27T09:47:14;14.70;98.40
65044;DHT22;51617;48.158;16.464;2022-09-27T09:49:43;14.80;98.80
65044;DHT22;51617;48.158;16.464;2022-09-27T09:52:11;14.80;98.20
65044;DHT22;51617;48.158;16.464;2022-09-27T09:57:24;14.80;98.00
65044;DHT22;51617;48.158;16.464;2022-09-27T10:00:04;14.80;98.30
65044;DHT22;51617;48.158;16.464;2022-09-27T10:02:31;14.80;98.30
65044;DHT22;51617;48.158;16.464;2022-09-27T10:04:58;14.80;98.30
65044;DHT22;51617;48.158;16.464;2022-09-27T10:07:24;14.90;97.80
65044;DHT22;51617;48.158;16.464;2022-09-27T10:09:51;15.10;97.80
65044;DHT22;51617;48.158;16.464;2022-09-27T10:12:17;15.10;97.30
65044;DHT22;51617;48.158;16.464;2022-09-27T10:14:44;15.30;96.60
65044;DHT22;51617;48.158;16.464;2022-09-27T10:17:11;15.50;97.10
65044;DHT22;51617;48.158;16.464;2022-09-27T10:19:39;15.60;96.10
65044;DHT22;51617;48.158;16.464;2022-09-27T10:22:13;15.60;95.20
65044;DHT22;51617;48.158;16.464;2022-09-27T10:27:22;15.90;95.90
65044;DHT22;51617;48.158;16.464;2022-09-27T10:29:55;16.10;95.30
65044;DHT22;51617;48.158;16.464;2022-09-27T10:32:22;16.20;94.80
65044;DHT22;51617;48.158;16.464;2022-09-27T10:34:48;16.10;94.60
65044;DHT22;51617;48.158;16.464;2022-09-27T10:39:42;16.20;94.30
65044;DHT22;51617;48.158;16.464;2022-09-27T10:44:46;16.50;94.60
65044;DHT22;51617;48.158;16.464;2022-09-27T10:47:12;16.60;95.30
65044;DHT22;51617;48.158;16.464;2022-09-27T10:49:40;16.70;95.30
65044;DHT22;51617;48.158;16.464;2022-09-27T10:52:07;16.90;94.30
65044;DHT22;51617;48.158;16.464;2022-09-27T10:54:38;17.00;93.80
65044;DHT22;51617;48.158;16.464;2022-09-27T10:57:09;17.00;93.20
65044;DHT22;51617;48.158;16.464;2022-09-27T10:59:43;17.00;93.40
65044;DHT22;51617;48.158;16.464;2022-09-27T11:05:11;16.90;93.30
65044;DHT22;51617;48.158;16.464;2022-09-27T11:07:48;16.80;93.50
65044;DHT22;51617;48.158;16.464;2022-09-27T11:10:22;16.70;93.90
65044;DHT22;51617;48.158;16.464;2022-09-27T11:15:30;16.90;93.80
65044;DHT22;51617;48.158;16.464;2022-09-27T11:18:15;17.00;93.50
65044;DHT22;51617;48.158;16.464;2022-09-27T11:20:50;17.10;93.40
65044;DHT22;51617;48.158;16.464;2022-09-27T11:25:57;17.00;90.60
65044;DHT22;51617;48.158;16.464;2022-09-27T11:36:43;16.50;90.80
65044;DHT22;51617;48.158;16.464;2022-09-27T11:41:47;16.60;91.80
65044;DHT22;51617;48.158;16.464;2022-09-27T11:44:26;16.60;91.10
65044;DHT22;51617;48.158;16.464;2022-09-27T11:47:00;16.70;91.40
65044;DHT22;51617;48.158;16.464;2022-09-27T11:52:19;16.40;90.80
65044;DHT22;51617;48.158;16.464;2022-09-27T11:57:21;16.40;91.40
65044;DHT22;51617;48.158;16.464;2022-09-27T12:10:38;16.00;92.00
65044;DHT22;51617;48.158;16.464;2022-09-27T12:13:04;16.10;92.30
65044;DHT22;51617;48.158;16.464;2022-09-27T12:15:31;16.00;92.00
65044;DHT22;51617;48.158;16.464;2022-09-27T12:18:06;16.10;92.00
65044;DHT22;51617;48.158;16.464;2022-09-27T12:20:34;16.20;91.20
65044;DHT22;51617;48.158;16.464;2022-09-27T12:23:01;16.30;91.00
65044;DHT22;51617;48.158;16.464;2022-09-27T12:25:33;16.30;91.00
65044;DHT22;51617;48.158;16.464;2022-09-27T12:28:04;16.40;91.40
65044;DHT22;51617;48.158;16.464;2022-09-27T12:30:31;16.40;91.20
65044;DHT22;51617;48.158;16.464;2022-09-27T12:35:41;16.60;91.90
65044;DHT22;51617;48.158;16.464;2022-09-27T12:38:35;16.70;91.80
65044;DHT22;51617;48.158;16.464;2022-09-27T12:40:54;16.60;91.00
65044;DHT22;51617;48.158;16.464;2022-09-27T12:43:23;16.60;90.90
65044;DHT22;51617;48.158;16.464;2022-09-27T12:56:17;16.50;90.90
65044;DHT22;51617;48.158;16.464;2022-09-27T12:58:48;16.50;90.90
65044;DHT22;51617;48.158;16.464;2022-09-27T13:13:34;16.50;90.80
65044;DHT22;51617;48.158;16.464;2022-09-27T13:16:02;16.50;90.30
65044;DHT22;51617;48.158;16.464;2022-09-27T13:20:53;16.50;90.80
65044;DHT22;51617;48.158;16.464;2022-09-27T13:25:49;16.50;90.90
65044;DHT22;51617;48.158;16.464;2022-09-27T13:30:52;16.40;90.70
65044;DHT22;51617;48.158;16.464;2022-09-27T13:36:04;16.30;91.00
65044;DHT22;51617;48.158;16.464;2022-09-27T13:38:28;16.40;90.60
65044;DHT22;51617;48.158;16.464;2022-09-27T13:40:54;16.30;90.20
65044;DHT22;51617;48.158;16.464;2022-09-27T13:44:40;16.20;90.60
65044;DHT22;51617;48.158;16.464;2022-09-27T13:46:33;16.30;90.90
65044;DHT22;51617;48.158;16.464;2022-09-27T13:51:43;16.30;90.40
65044;DHT22;51617;48.158;16.464;2022-09-27T14:00:00;16.40;90.40
65044;DHT22;51617;48.158;16.464;2022-09-27T14:02:30;16.40;89.90
65044;DHT22;51617;48.158;16.464;2022-09-27T14:05:00;16.40;89.20
65044;DHT22;51617;48.158;16.464;2022-09-27T14:07:28;16.40;90.00
65044;DHT22;51617;48.158;16.464;2022-09-27T14:09:57;16.40;90.30
65044;DHT22;51617;48.158;16.464;2022-09-27T14:12:27;16.40;89.50
65044;DHT22;51617;48.158;16.464;2022-09-27T14:14:53;16.50;90.00
65044;DHT22;51617;48.158;16.464;2022-09-27T14:17:20;16.50;89.40
65044;DHT22;51617;48.158;16.464;2022-09-27T14:19:45;16.50;88.00
65044;DHT22;51617;48.158;16.464;2022-09-27T14:22:14;16.30;88.20
65044;DHT22;51617;48.158;16.464;2022-09-27T14:29:45;16.30;86.00
65044;DHT22;51617;48.158;16.464;2022-09-27T14:32:12;16.30;84.40
65044;DHT22;51617;48.158;16.464;2022-09-27T14:34:38;16.30;84.80
65044;DHT22;51617;48.158;16.464;2022-09-27T14:37:04;16.20;84.10
65044;DHT22;51617;48.158;16.464;2022-09-27T14:42:24;16.10;83.80
65044;DHT22;51617;48.158;16.464;2022-09-27T14:44:50;16.00;82.90
65044;DHT22;51617;48.158;16.464;2022-09-27T14:49:46;15.80;83.10
65044;DHT22;51617;48.158;16.464;2022-09-27T14:52:15;15.80;84.40
65044;DHT22;51617;48.158;16.464;2022-09-27T14:54:42;15.80;83.50
65044;DHT22;51617;48.158;16.464;2022-09-27T14:57:10;15.70;84.00
65044;DHT22;51617;48.158;16.464;2022-09-27T14:59:39;15.60;84.70
65044;DHT22;51617;48.158;16.464;2022-09-27T15:02:13;15.50;85.00
65044;DHT22;51617;48.158;16.464;2022-09-27T15:04:41;15.60;85.20
65044;DHT22;51617;48.158;16.464;2022-09-27T15:07:08;15.60;84.80
65044;DHT22;51617;48.158;16.464;2022-09-27T15:09:33;15.50;84.60
65044;DHT22;51617;48.158;16.464;2022-09-27T15:11:59;15.60;85.00
65044;DHT22;51617;48.158;16.464;2022-09-27T15:14:27;15.60;86.10
65044;DHT22;51617;48.158;16.464;2022-09-27T15:16:53;15.60;86.40
65044;DHT22;51617;48.158;16.464;2022-09-27T15:21:48;15.60;86.80
65044;DHT22;51617;48.158;16.464;2022-09-27T15:26:58;15.40;87.30
65044;DHT22;51617;48.158;16.464;2022-09-27T15:29:23;15.40;87.80
65044;DHT22;51617;48.158;16.464;2022-09-27T15:34:24;15.50;87.30
65044;DHT22;51617;48.158;16.464;2022-09-27T15:36:57;15.50;87.90
65044;DHT22;51617;48.158;16.464;2022-09-27T15:39:37;15.50;87.70
65044;DHT22;51617;48.158;16.464;2022-09-27T15:42:13;15.60;88.30
65044;DHT22;51617;48.158;16.464;2022-09-27T15:49:51;15.50;88.60
65044;DHT22;51617;48.158;16.464;2022-09-27T15:55:01;15.50;88.60
65044;DHT22;51617;48.158;16.464;2022-09-27T15:57:27;15.50;88.60
65044;DHT22;51617;48.158;16.464;2022-09-27T15:59:53;15.50;88.00
65044;DHT22;51617;48.158;16.464;2022-09-27T16:02:18;15.50;88.50
65044;DHT22;51617;48.158;16.464;2022-09-27T16:04:45;15.50;87.40
65044;DHT22;51617;48.158;16.464;2022-09-27T16:07:10;15.40;87.10
65044;DHT22;51617;48.158;16.464;2022-09-27T16:09:39;15.40;87.10
65044;DHT22;51617;48.158;16.464;2022-09-27T16:12:04;15.30;87.10
65044;DHT22;51617;48.158;16.464;2022-09-27T16:14:30;15.30;87.00
65044;DHT22;51617;48.158;16.464;2022-09-27T16:16:56;15.30;87.30
65044;DHT22;51617;48.158;16.464;2022-09-27T16:19:23;15.30;86.70
65044;DHT22;51617;48.158;16.464;2022-09-27T16:21:48;15.30;87.10
65044;DHT22;51617;48.158;16.464;2022-09-27T16:24:15;15.30;86.90
65044;DHT22;51617;48.158;16.464;2022-09-27T16:26:41;15.30;86.80
65044;DHT22;51617;48.158;16.464;2022-09-27T16:29:13;15.20;86.80
65044;DHT22;51617;48.158;16.464;2022-09-27T16:31:40;15.20;86.90
65044;DHT22;51617;48.158;16.464;2022-09-27T16:34:10;15.30;87.10
65044;DHT22;51617;48.158;16.464;2022-09-27T16:36:35;15.30;87.20
65044;DHT22;51617;48.158;16.464;2022-09-27T16:39:02;15.20;87.60
65044;DHT22;51617;48.158;16.464;2022-09-27T16:41:30;15.30;86.90
65044;DHT22;51617;48.158;16.464;2022-09-27T16:43:57;15.30;87.50
65044;DHT22;51617;48.158;16.464;2022-09-27T16:46:23;15.20;86.90
65044;DHT22;51617;48.158;16.464;2022-09-27T16:48:49;15.20;86.90
65044;DHT22;51617;48.158;16.464;2022-09-27T16:51:18;15.20;86.80
65044;DHT22;51617;48.158;16.464;2022-09-27T16:54:03;15.20;86.40
65044;DHT22;51617;48.158;16.464;2022-09-27T16:56:30;15.20;86.40
65044;DHT22;51617;48.158;16.464;2022-09-27T16:58:57;15.10;86.90
65044;DHT22;51617;48.158;16.464;2022-09-27T17:01:23;15.10;87.10
65044;DHT22;51617;48.158;16.464;2022-09-27T17:03:49;15.10;86.70
65044;DHT22;51617;48.158;16.464;2022-09-27T17:06:15;15.10;87.00
65044;DHT22;51617;48.158;16.464;2022-09-27T17:08:41;15.00;86.70
65044;DHT22;51617;48.158;16.464;2022-09-27T17:11:06;15.00;87.50
65044;DHT22;51617;48.158;16.464;2022-09-27T17:13:32;14.90;87.90
65044;DHT22;51617;48.158;16.464;2022-09-27T17:15:58;14.80;88.30
65044;DHT22;51617;48.158;16.464;2022-09-27T17:18:24;14.80;88.60
65044;DHT22;51617;48.158;16.464;2022-09-27T17:20:49;14.70;89.20
65044;DHT22;51617;48.158;16.464;2022-09-27T17:23:15;14.60;89.30
65044;DHT22;51617;48.158;16.464;2022-09-27T17:25:40;14.60;89.80
65044;DHT22;51617;48.158;16.464;2022-09-27T17:28:06;14.60;88.80
65044;DHT22;51617;48.158;16.464;2022-09-27T17:30:31;14.50;88.50
65044;DHT22;51617;48.158;16.464;2022-09-27T17:32:59;14.50;88.50
65044;DHT22;51617;48.158;16.464;2022-09-27T17:35:24;14.40;88.50
65044;DHT22;51617;48.158;16.464;2022-09-27T17:37:50;14.40;88.30
65044;DHT22;51617;48.158;16.464;2022-09-27T17:40:15;14.30;88.30
65044;DHT22;51617;48.158;16.464;2022-09-27T17:42:41;14.30;88.60
65044;DHT22;51617;48.158;16.464;2022-09-27T17:45:07;14.30;88.70
65044;DHT22;51617;48.158;16.464;2022-09-27T17:47:33;14.30;88.30
65044;DHT22;51617;48.158;16.464;2022-09-27T17:50:17;14.30;88.40
65044;DHT22;51617;48.158;16.464;2022-09-27T17:52:48;14.30;87.40
65044;DHT22;51617;48.158;16.464;2022-09-27T17:55:14;14.20;87.70
65044;DHT22;51617;48.158;16.464;2022-09-27T17:57:39;14.20;88.10
65044;DHT22;51617;48.158;16.464;2022-09-27T18:00:05;14.10;88.00
65044;DHT22;51617;48.158;16.464;2022-09-27T18:02:31;14.20;87.30
65044;DHT22;51617;48.158;16.464;2022-09-27T18:04:57;14.10;87.40
65044;DHT22;51617;48.158;16.464;2022-09-27T18:07:22;14.10;87.40
65044;DHT22;51617;48.158;16.464;2022-09-27T18:09:48;14.10;87.30
65044;DHT22;51617;48.158;16.464;2022-09-27T18:12:15;14.20;87.40
65044;DHT22;51617;48.158;16.464;2022-09-27T18:14:41;14.20;86.70
65044;DHT22;51617;48.158;16.464;2022-09-27T18:17:07;14.20;86.50
65044;DHT22;51617;48.158;16.464;2022-09-27T18:19:37;14.20;86.50
65044;DHT22;51617;48.158;16.464;2022-09-27T18:22:03;14.20;86.30
65044;DHT22;51617;48.158;16.464;2022-09-27T18:24:28;14.20;86.00
65044;DHT22;51617;48.158;16.464;2022-09-27T18:26:55;14.10;85.30
65044;DHT22;51617;48.158;16.464;2022-09-27T18:29:21;14.20;85.90